Araioses, Brazil
Current Conditions -  °F | °C
As of 9:00 PM on Friday 19 Dec 2014 (Local Time) from SBPB Reporting Station
Broken Clouds Broken Clouds  
Wind Chill: 82°   Ceiling: 10000
Heat Index: 89°   Visibility: 6mi
Dew Point: 75°   Wind: 23mph
Humidity: 79%   Direction: 110°ESE
Pressure: 29.85"   Gusts: NA
Location:  2.89°S, 41.9°W
Report Text: SBPB 200000Z 11020KT 9999 FEW017 BKN100 28/24 Q1011
Loading
Personal Weather Stations






























Interactive Weather Map New forecast layout! Learn more

10-Day Weather Forecast

Advertisements
Track Severe Weather on mobile